Stewartville, MN

1:05 PM CDT on July 26, 2016 (GMT -0500)
Bucknell Boulevard Southeast | | Change Station

Elev 1269 ft 43.84 °N, 92.48 °W | Updated 2 minutes ago

Partly Cloudy
Partly Cloudy
90.9 °F
Feels Like 103 °F
N
2.5
Wind Variable Wind from SW
Gusts 5.6 mph

Today
High -- | Low -- °F
--% Chance of Precip.
Yesterday
High -- | Low -- °F
Precip. -- in
Pressure 30.07 in
Visibility 10.0 miles
Clouds Few 3300 ft
Heat Index 103 °F
Dew Point 76 °F
Humidity 62%
Rainfall 0.00 in
Snow Depth Not available.
5:52 AM 8:39 PM
Waning Gibbous, 52% visible
METAR KRST 261754Z 28004KT 10SM FEW033 28/21 A3009 RMK AO2 SLP183 T02830206 10289 20189 58005
Pressure 30.07 in
Visibility 10.0 miles
Clouds Few 3300 ft
Heat Index 103 °F
Dew Point 76 °F
Humidity 62%
Rainfall 0.00 in
Snow Depth Not available.
5:52 AM 8:39 PM
Waning Gibbous, 52% visible
METAR KRST 261754Z 28004KT 10SM FEW033 28/21 A3009 RMK AO2 SLP183 T02830206 10289 20189 58005

10-Day Weather Forecast

Almanac

Astronomy

Jul. 26, 2016 Rise Set
Actual Time
Civil Twilight
Nautical Twilight
Astronomical Twilight
Moon
Length of Visible Light
Length of Day
Tomorrow will be .
, % of the Moon is Illuminated

Today's Extremes

State Highs State Lows

Community

WunderPhotos

Upload Photos

1,927,650 photos uploaded!

WunderBlog® & News

Nearby

Air Quality

  Air Quality AQ Index Pollutant
Not available.

Snow Depth

Station Depth Elevation

Earthquake Activity

City Distance Mag. Time & Date
Minimum magnitude displayed is 2.5.

Coastal Water Temperatures

Place Temperature

Stations

Nearby Weather Stations

Station Location Temp. Windchill Dew Point Humidity Wind Precip. Elev Updated Type
                   

Watches & Warnings

There are currently no watches in effect.